sensor_id;sensor_type;location;lat;lon;timestamp;P1;durP1;ratioP1;P2;durP2;ratioP2
29570;SDS011;16814;52.118;11.436;2023-04-01T00:00:15;6.30;;;1.50;;
29570;SDS011;16814;52.118;11.436;2023-04-01T00:02:41;5.63;;;1.60;;
29570;SDS011;16814;52.118;11.436;2023-04-01T00:05:06;5.72;;;1.90;;
29570;SDS011;16814;52.118;11.436;2023-04-01T00:07:32;9.03;;;2.00;;
29570;SDS011;16814;52.118;11.436;2023-04-01T00:09:58;5.68;;;1.83;;
29570;SDS011;16814;52.118;11.436;2023-04-01T00:12:30;4.95;;;1.80;;
29570;SDS011;16814;52.118;11.436;2023-04-01T00:14:55;5.85;;;1.85;;
29570;SDS011;16814;52.118;11.436;2023-04-01T00:17:21;6.50;;;2.00;;
29570;SDS011;16814;52.118;11.436;2023-04-01T00:19:46;6.00;;;1.90;;
29570;SDS011;16814;52.118;11.436;2023-04-01T00:22:12;6.43;;;2.30;;
29570;SDS011;16814;52.118;11.436;2023-04-01T00:24:38;5.95;;;2.38;;
29570;SDS011;16814;52.118;11.436;2023-04-01T00:27:04;7.77;;;2.43;;
29570;SDS011;16814;52.118;11.436;2023-04-01T00:29:29;10.70;;;3.23;;
29570;SDS011;16814;52.118;11.436;2023-04-01T00:31:58;10.00;;;3.50;;
29570;SDS011;16814;52.118;11.436;2023-04-01T00:34:24;10.90;;;3.10;;
29570;SDS011;16814;52.118;11.436;2023-04-01T00:36:50;7.47;;;2.90;;
29570;SDS011;16814;52.118;11.436;2023-04-01T00:39:17;9.43;;;2.90;;
29570;SDS011;16814;52.118;11.436;2023-04-01T00:41:43;10.85;;;2.70;;
29570;SDS011;16814;52.118;11.436;2023-04-01T00:44:19;8.67;;;2.70;;
29570;SDS011;16814;52.118;11.436;2023-04-01T00:46:48;7.60;;;2.20;;
29570;SDS011;16814;52.118;11.436;2023-04-01T00:49:15;7.07;;;2.42;;
29570;SDS011;16814;52.118;11.436;2023-04-01T00:51:42;8.05;;;2.05;;
29570;SDS011;16814;52.118;11.436;2023-04-01T00:54:11;5.90;;;1.85;;
29570;SDS011;16814;52.118;11.436;2023-04-01T00:56:41;6.93;;;2.08;;
29570;SDS011;16814;52.118;11.436;2023-04-01T00:59:16;8.13;;;2.20;;
29570;SDS011;16814;52.118;11.436;2023-04-01T01:01:46;7.28;;;2.00;;
29570;SDS011;16814;52.118;11.436;2023-04-01T01:04:25;6.30;;;1.80;;
29570;SDS011;16814;52.118;11.436;2023-04-01T01:06:58;10.25;;;2.22;;
29570;SDS011;16814;52.118;11.436;2023-04-01T01:10:08;5.97;;;1.98;;
29570;SDS011;16814;52.118;11.436;2023-04-01T01:15:28;8.85;;;2.05;;
29570;SDS011;16814;52.118;11.436;2023-04-01T01:17:58;6.50;;;1.88;;
29570;SDS011;16814;52.118;11.436;2023-04-01T01:34:29;7.82;;;2.13;;
29570;SDS011;16814;52.118;11.436;2023-04-01T01:37:18;9.63;;;2.50;;
29570;SDS011;16814;52.118;11.436;2023-04-01T01:39:49;8.30;;;2.47;;
29570;SDS011;16814;52.118;11.436;2023-04-01T01:42:20;12.95;;;2.42;;
29570;SDS011;16814;52.118;11.436;2023-04-01T01:44:49;8.23;;;2.05;;
29570;SDS011;16814;52.118;11.436;2023-04-01T01:47:16;11.57;;;2.33;;
29570;SDS011;16814;52.118;11.436;2023-04-01T01:49:43;7.05;;;2.13;;
29570;SDS011;16814;52.118;11.436;2023-04-01T01:52:10;10.15;;;2.47;;
29570;SDS011;16814;52.118;11.436;2023-04-01T01:54:46;8.47;;;2.43;;
29570;SDS011;16814;52.118;11.436;2023-04-01T01:57:13;7.38;;;2.65;;
29570;SDS011;16814;52.118;11.436;2023-04-01T01:59:42;9.68;;;2.63;;
29570;SDS011;16814;52.118;11.436;2023-04-01T02:02:10;11.90;;;2.50;;
29570;SDS011;16814;52.118;11.436;2023-04-01T02:04:38;11.00;;;2.22;;
29570;SDS011;16814;52.118;11.436;2023-04-01T02:07:07;9.02;;;2.50;;
29570;SDS011;16814;52.118;11.436;2023-04-01T02:09:37;9.30;;;2.70;;
29570;SDS011;16814;52.118;11.436;2023-04-01T02:12:04;8.70;;;2.45;;
29570;SDS011;16814;52.118;11.436;2023-04-01T02:14:39;8.97;;;2.67;;
29570;SDS011;16814;52.118;11.436;2023-04-01T02:17:19;9.30;;;2.67;;
29570;SDS011;16814;52.118;11.436;2023-04-01T02:19:53;9.13;;;2.50;;
29570;SDS011;16814;52.118;11.436;2023-04-01T02:22:25;7.60;;;2.25;;
29570;SDS011;16814;52.118;11.436;2023-04-01T02:24:54;7.32;;;2.53;;
29570;SDS011;16814;52.118;11.436;2023-04-01T02:27:23;8.30;;;2.50;;
29570;SDS011;16814;52.118;11.436;2023-04-01T02:29:49;6.47;;;2.13;;
29570;SDS011;16814;52.118;11.436;2023-04-01T02:32:16;9.35;;;2.17;;
29570;SDS011;16814;52.118;11.436;2023-04-01T02:34:44;10.65;;;2.30;;
29570;SDS011;16814;52.118;11.436;2023-04-01T02:37:11;8.23;;;2.20;;
29570;SDS011;16814;52.118;11.436;2023-04-01T02:39:37;7.70;;;2.58;;
29570;SDS011;16814;52.118;11.436;2023-04-01T02:42:03;9.80;;;2.80;;
29570;SDS011;16814;52.118;11.436;2023-04-01T02:44:28;9.15;;;2.42;;
29570;SDS011;16814;52.118;11.436;2023-04-01T02:46:54;8.93;;;2.50;;
29570;SDS011;16814;52.118;11.436;2023-04-01T02:49:19;11.90;;;2.80;;
29570;SDS011;16814;52.118;11.436;2023-04-01T02:51:45;8.73;;;2.72;;
29570;SDS011;16814;52.118;11.436;2023-04-01T02:54:12;8.67;;;2.50;;
29570;SDS011;16814;52.118;11.436;2023-04-01T02:56:38;10.75;;;2.95;;
29570;SDS011;16814;52.118;11.436;2023-04-01T02:59:03;10.67;;;3.27;;
29570;SDS011;16814;52.118;11.436;2023-04-01T03:01:29;13.13;;;3.22;;
29570;SDS011;16814;52.118;11.436;2023-04-01T03:03:54;9.63;;;3.07;;
29570;SDS011;16814;52.118;11.436;2023-04-01T03:06:20;8.48;;;2.60;;
29570;SDS011;16814;52.118;11.436;2023-04-01T03:08:46;11.07;;;2.80;;
29570;SDS011;16814;52.118;11.436;2023-04-01T03:11:11;10.63;;;3.37;;
29570;SDS011;16814;52.118;11.436;2023-04-01T03:13:37;6.15;;;2.63;;
29570;SDS011;16814;52.118;11.436;2023-04-01T03:16:03;10.02;;;3.22;;
29570;SDS011;16814;52.118;11.436;2023-04-01T03:18:29;11.00;;;2.90;;
29570;SDS011;16814;52.118;11.436;2023-04-01T03:20:54;11.05;;;2.88;;
29570;SDS011;16814;52.118;11.436;2023-04-01T03:23:20;11.70;;;3.57;;
29570;SDS011;16814;52.118;11.436;2023-04-01T03:25:46;8.38;;;2.70;;
29570;SDS011;16814;52.118;11.436;2023-04-01T03:28:13;10.97;;;2.60;;
29570;SDS011;16814;52.118;11.436;2023-04-01T03:30:38;10.20;;;2.80;;
29570;SDS011;16814;52.118;11.436;2023-04-01T03:33:04;11.85;;;3.05;;
29570;SDS011;16814;52.118;11.436;2023-04-01T03:35:31;9.10;;;2.83;;
29570;SDS011;16814;52.118;11.436;2023-04-01T03:37:57;14.98;;;2.95;;
29570;SDS011;16814;52.118;11.436;2023-04-01T03:40:23;13.23;;;3.00;;
29570;SDS011;16814;52.118;11.436;2023-04-01T03:42:49;11.80;;;3.30;;
29570;SDS011;16814;52.118;11.436;2023-04-01T03:45:16;10.38;;;2.75;;
29570;SDS011;16814;52.118;11.436;2023-04-01T03:47:42;9.23;;;2.70;;
29570;SDS011;16814;52.118;11.436;2023-04-01T03:50:08;9.07;;;2.70;;
29570;SDS011;16814;52.118;11.436;2023-04-01T03:52:34;10.20;;;3.03;;
29570;SDS011;16814;52.118;11.436;2023-04-01T03:55:00;11.73;;;2.92;;
29570;SDS011;16814;52.118;11.436;2023-04-01T03:57:26;10.75;;;2.50;;
29570;SDS011;16814;52.118;11.436;2023-04-01T03:59:52;8.33;;;2.87;;
29570;SDS011;16814;52.118;11.436;2023-04-01T04:02:17;10.00;;;2.70;;
29570;SDS011;16814;52.118;11.436;2023-04-01T04:04:43;10.10;;;2.83;;
29570;SDS011;16814;52.118;11.436;2023-04-01T04:07:08;10.83;;;3.30;;
29570;SDS011;16814;52.118;11.436;2023-04-01T04:09:34;9.85;;;3.10;;
29570;SDS011;16814;52.118;11.436;2023-04-01T04:12:01;9.23;;;2.90;;
29570;SDS011;16814;52.118;11.436;2023-04-01T04:14:26;10.73;;;3.30;;
29570;SDS011;16814;52.118;11.436;2023-04-01T04:16:52;9.07;;;2.60;;
29570;SDS011;16814;52.118;11.436;2023-04-01T04:19:17;11.10;;;3.30;;
29570;SDS011;16814;52.118;11.436;2023-04-01T04:21:43;10.73;;;3.07;;
29570;SDS011;16814;52.118;11.436;2023-04-01T04:24:09;7.97;;;2.70;;
29570;SDS011;16814;52.118;11.436;2023-04-01T04:26:35;9.48;;;2.78;;
29570;SDS011;16814;52.118;11.436;2023-04-01T04:29:01;10.07;;;2.80;;
29570;SDS011;16814;52.118;11.436;2023-04-01T04:31:27;7.68;;;3.00;;
29570;SDS011;16814;52.118;11.436;2023-04-01T04:33:53;7.50;;;2.40;;
29570;SDS011;16814;52.118;11.436;2023-04-01T04:36:19;13.05;;;2.80;;
29570;SDS011;16814;52.118;11.436;2023-04-01T04:38:46;9.70;;;2.70;;
29570;SDS011;16814;52.118;11.436;2023-04-01T04:41:12;8.82;;;2.80;;
29570;SDS011;16814;52.118;11.436;2023-04-01T04:43:39;12.60;;;3.03;;
29570;SDS011;16814;52.118;11.436;2023-04-01T04:46:06;12.63;;;3.15;;
29570;SDS011;16814;52.118;11.436;2023-04-01T04:48:32;10.73;;;2.60;;
29570;SDS011;16814;52.118;11.436;2023-04-01T04:50:58;7.18;;;2.85;;
29570;SDS011;16814;52.118;11.436;2023-04-01T04:53:24;6.20;;;2.70;;
29570;SDS011;16814;52.118;11.436;2023-04-01T04:55:50;11.60;;;3.45;;
29570;SDS011;16814;52.118;11.436;2023-04-01T04:58:16;11.43;;;3.47;;
29570;SDS011;16814;52.118;11.436;2023-04-01T05:00:42;9.90;;;3.28;;
29570;SDS011;16814;52.118;11.436;2023-04-01T05:03:08;10.32;;;3.42;;
29570;SDS011;16814;52.118;11.436;2023-04-01T05:05:35;10.88;;;2.90;;
29570;SDS011;16814;52.118;11.436;2023-04-01T05:08:01;8.50;;;3.20;;
29570;SDS011;16814;52.118;11.436;2023-04-01T05:10:26;9.68;;;2.78;;
29570;SDS011;16814;52.118;11.436;2023-04-01T05:12:52;9.80;;;2.70;;
29570;SDS011;16814;52.118;11.436;2023-04-01T05:15:18;7.15;;;2.88;;
29570;SDS011;16814;52.118;11.436;2023-04-01T05:17:43;10.80;;;2.90;;
29570;SDS011;16814;52.118;11.436;2023-04-01T05:20:11;4.72;;;2.70;;
29570;SDS011;16814;52.118;11.436;2023-04-01T05:22:38;7.63;;;2.83;;
29570;SDS011;16814;52.118;11.436;2023-04-01T05:25:03;12.48;;;3.13;;
29570;SDS011;16814;52.118;11.436;2023-04-01T05:27:29;9.30;;;3.00;;
29570;SDS011;16814;52.118;11.436;2023-04-01T05:29:55;8.75;;;2.90;;
29570;SDS011;16814;52.118;11.436;2023-04-01T05:32:21;8.10;;;2.72;;
29570;SDS011;16814;52.118;11.436;2023-04-01T05:34:49;7.93;;;2.67;;
29570;SDS011;16814;52.118;11.436;2023-04-01T05:37:15;6.13;;;2.47;;
29570;SDS011;16814;52.118;11.436;2023-04-01T05:39:41;9.07;;;3.20;;
29570;SDS011;16814;52.118;11.436;2023-04-01T05:42:07;10.27;;;2.90;;
29570;SDS011;16814;52.118;11.436;2023-04-01T05:44:33;8.07;;;2.78;;
29570;SDS011;16814;52.118;11.436;2023-04-01T05:46:59;7.70;;;2.90;;
29570;SDS011;16814;52.118;11.436;2023-04-01T05:49:25;11.17;;;3.07;;
29570;SDS011;16814;52.118;11.436;2023-04-01T05:51:50;10.35;;;2.60;;
29570;SDS011;16814;52.118;11.436;2023-04-01T05:54:16;9.07;;;2.80;;
29570;SDS011;16814;52.118;11.436;2023-04-01T05:56:42;8.68;;;2.90;;
29570;SDS011;16814;52.118;11.436;2023-04-01T05:59:09;9.27;;;2.73;;
29570;SDS011;16814;52.118;11.436;2023-04-01T06:01:35;10.63;;;2.53;;
29570;SDS011;16814;52.118;11.436;2023-04-01T06:04:01;8.00;;;2.80;;
29570;SDS011;16814;52.118;11.436;2023-04-01T06:06:27;5.22;;;2.45;;
29570;SDS011;16814;52.118;11.436;2023-04-01T06:08:55;6.15;;;2.50;;
29570;SDS011;16814;52.118;11.436;2023-04-01T06:11:28;7.30;;;2.63;;
29570;SDS011;16814;52.118;11.436;2023-04-01T06:14:10;6.82;;;2.53;;
29570;SDS011;16814;52.118;11.436;2023-04-01T06:25:22;9.82;;;3.08;;
29570;SDS011;16814;52.118;11.436;2023-04-01T06:33:44;12.57;;;3.50;;
29570;SDS011;16814;52.118;11.436;2023-04-01T06:42:13;6.07;;;2.28;;
29570;SDS011;16814;52.118;11.436;2023-04-01T06:45:12;7.95;;;2.50;;
29570;SDS011;16814;52.118;11.436;2023-04-01T06:47:51;6.45;;;2.30;;
29570;SDS011;16814;52.118;11.436;2023-04-01T06:50:52;6.78;;;2.72;;
29570;SDS011;16814;52.118;11.436;2023-04-01T06:53:39;9.00;;;2.50;;
29570;SDS011;16814;52.118;11.436;2023-04-01T06:56:16;8.80;;;2.65;;
29570;SDS011;16814;52.118;11.436;2023-04-01T06:58:46;7.93;;;2.63;;
29570;SDS011;16814;52.118;11.436;2023-04-01T07:01:18;8.13;;;2.30;;
29570;SDS011;16814;52.118;11.436;2023-04-01T07:04:05;6.22;;;2.47;;
29570;SDS011;16814;52.118;11.436;2023-04-01T07:06:38;7.97;;;2.55;;
29570;SDS011;16814;52.118;11.436;2023-04-01T07:09:19;8.48;;;2.20;;
29570;SDS011;16814;52.118;11.436;2023-04-01T07:11:47;4.43;;;2.22;;
29570;SDS011;16814;52.118;11.436;2023-04-01T07:14:27;9.03;;;2.10;;
29570;SDS011;16814;52.118;11.436;2023-04-01T07:17:08;9.35;;;2.40;;
29570;SDS011;16814;52.118;11.436;2023-04-01T07:19:48;7.78;;;2.33;;
29570;SDS011;16814;52.118;11.436;2023-04-01T07:22:32;4.78;;;1.80;;
29570;SDS011;16814;52.118;11.436;2023-04-01T07:25:03;6.53;;;2.05;;
29570;SDS011;16814;52.118;11.436;2023-04-01T07:27:36;4.27;;;1.80;;
29570;SDS011;16814;52.118;11.436;2023-04-01T07:30:03;4.50;;;1.90;;
29570;SDS011;16814;52.118;11.436;2023-04-01T07:32:42;5.45;;;1.70;;
29570;SDS011;16814;52.118;11.436;2023-04-01T07:35:24;6.35;;;1.58;;
29570;SDS011;16814;52.118;11.436;2023-04-01T07:38:15;6.40;;;1.70;;
29570;SDS011;16814;52.118;11.436;2023-04-01T07:43:44;3.60;;;1.67;;
29570;SDS011;16814;52.118;11.436;2023-04-01T07:46:23;6.00;;;1.90;;
29570;SDS011;16814;52.118;11.436;2023-04-01T07:49:06;6.63;;;1.90;;
29570;SDS011;16814;52.118;11.436;2023-04-01T07:51:46;5.80;;;1.50;;
29570;SDS011;16814;52.118;11.436;2023-04-01T07:54:31;4.40;;;1.47;;
29570;SDS011;16814;52.118;11.436;2023-04-01T07:57:12;4.88;;;1.55;;
29570;SDS011;16814;52.118;11.436;2023-04-01T08:00:05;4.18;;;1.60;;
29570;SDS011;16814;52.118;11.436;2023-04-01T08:03:05;4.13;;;1.60;;
29570;SDS011;16814;52.118;11.436;2023-04-01T08:05:41;5.60;;;1.55;;
29570;SDS011;16814;52.118;11.436;2023-04-01T08:14:02;3.63;;;1.20;;
29570;SDS011;16814;52.118;11.436;2023-04-01T08:21:57;3.75;;;1.10;;
29570;SDS011;16814;52.118;11.436;2023-04-01T08:24:42;5.55;;;1.30;;
29570;SDS011;16814;52.118;11.436;2023-04-01T08:27:11;4.50;;;1.20;;
29570;SDS011;16814;52.118;11.436;2023-04-01T08:32:22;3.58;;;1.13;;
29570;SDS011;16814;52.118;11.436;2023-04-01T08:37:32;2.47;;;0.88;;
29570;SDS011;16814;52.118;11.436;2023-04-01T08:40:05;2.85;;;0.93;;
29570;SDS011;16814;52.118;11.436;2023-04-01T08:46:17;3.08;;;1.17;;
29570;SDS011;16814;52.118;11.436;2023-04-01T08:52:24;4.63;;;1.00;;
29570;SDS011;16814;52.118;11.436;2023-04-01T09:00:33;2.78;;;0.90;;
29570;SDS011;16814;52.118;11.436;2023-04-01T09:03:15;2.47;;;0.90;;
29570;SDS011;16814;52.118;11.436;2023-04-01T09:14:37;5.32;;;1.50;;
29570;SDS011;16814;52.118;11.436;2023-04-01T09:31:40;2.53;;;0.90;;
29570;SDS011;16814;52.118;11.436;2023-04-01T09:34:36;1.77;;;0.82;;
29570;SDS011;16814;52.118;11.436;2023-04-01T09:37:31;3.17;;;1.00;;
29570;SDS011;16814;52.118;11.436;2023-04-01T09:52:08;1.88;;;0.90;;
29570;SDS011;16814;52.118;11.436;2023-04-01T10:31:13;1.77;;;0.65;;
29570;SDS011;16814;52.118;11.436;2023-04-01T10:36:59;3.00;;;0.98;;
29570;SDS011;16814;52.118;11.436;2023-04-01T10:48:36;1.85;;;0.73;;
29570;SDS011;16814;52.118;11.436;2023-04-01T10:54:45;2.20;;;0.80;;
29570;SDS011;16814;52.118;11.436;2023-04-01T11:09:07;2.67;;;0.88;;
29570;SDS011;16814;52.118;11.436;2023-04-01T11:12:02;2.13;;;0.80;;
29570;SDS011;16814;52.118;11.436;2023-04-01T11:20:42;3.42;;;1.20;;
29570;SDS011;16814;52.118;11.436;2023-04-01T11:31:35;3.03;;;0.70;;
29570;SDS011;16814;52.118;11.436;2023-04-01T11:40:02;1.27;;;0.60;;
29570;SDS011;16814;52.118;11.436;2023-04-01T11:45:48;1.38;;;0.55;;
29570;SDS011;16814;52.118;11.436;2023-04-01T11:48:29;3.40;;;0.60;;
29570;SDS011;16814;52.118;11.436;2023-04-01T11:51:10;1.25;;;0.63;;
29570;SDS011;16814;52.118;11.436;2023-04-01T12:06:05;2.78;;;1.42;;
29570;SDS011;16814;52.118;11.436;2023-04-01T12:14:05;3.60;;;1.20;;
29570;SDS011;16814;52.118;11.436;2023-04-01T12:16:59;5.33;;;1.10;;
29570;SDS011;16814;52.118;11.436;2023-04-01T12:24:45;2.42;;;0.80;;
29570;SDS011;16814;52.118;11.436;2023-04-01T12:27:41;2.45;;;0.40;;
29570;SDS011;16814;52.118;11.436;2023-04-01T12:32:45;2.67;;;0.80;;
29570;SDS011;16814;52.118;11.436;2023-04-01T12:51:57;3.65;;;0.85;;
29570;SDS011;16814;52.118;11.436;2023-04-01T13:00:30;1.63;;;0.70;;
29570;SDS011;16814;52.118;11.436;2023-04-01T13:11:14;8.32;;;1.48;;
29570;SDS011;16814;52.118;11.436;2023-04-01T13:16:29;4.05;;;1.52;;
29570;SDS011;16814;52.118;11.436;2023-04-01T13:19:11;2.95;;;0.98;;
29570;SDS011;16814;52.118;11.436;2023-04-01T13:22:15;4.10;;;0.70;;
29570;SDS011;16814;52.118;11.436;2023-04-01T13:24:59;3.92;;;0.90;;
29570;SDS011;16814;52.118;11.436;2023-04-01T13:27:44;1.85;;;0.68;;
29570;SDS011;16814;52.118;11.436;2023-04-01T13:36:32;1.65;;;0.82;;
29570;SDS011;16814;52.118;11.436;2023-04-01T13:41:58;2.10;;;0.80;;
29570;SDS011;16814;52.118;11.436;2023-04-01T13:44:32;1.67;;;0.70;;
29570;SDS011;16814;52.118;11.436;2023-04-01T13:52:50;2.50;;;0.50;;
29570;SDS011;16814;52.118;11.436;2023-04-01T14:01:13;0.90;;;0.43;;
29570;SDS011;16814;52.118;11.436;2023-04-01T14:04:02;1.40;;;0.40;;
29570;SDS011;16814;52.118;11.436;2023-04-01T14:09:41;2.28;;;0.60;;
29570;SDS011;16814;52.118;11.436;2023-04-01T14:12:34;4.03;;;1.85;;
29570;SDS011;16814;52.118;11.436;2023-04-01T14:17:42;5.53;;;2.90;;
29570;SDS011;16814;52.118;11.436;2023-04-01T14:20:28;4.97;;;3.03;;
29570;SDS011;16814;52.118;11.436;2023-04-01T14:23:09;2.90;;;2.60;;
29570;SDS011;16814;52.118;11.436;2023-04-01T14:28:53;2.90;;;2.55;;
29570;SDS011;16814;52.118;11.436;2023-04-01T14:31:43;3.45;;;2.95;;
29570;SDS011;16814;52.118;11.436;2023-04-01T14:34:32;5.63;;;2.85;;
29570;SDS011;16814;52.118;11.436;2023-04-01T14:40:28;6.50;;;3.17;;
29570;SDS011;16814;52.118;11.436;2023-04-01T14:46:08;3.63;;;2.88;;
29570;SDS011;16814;52.118;11.436;2023-04-01T14:48:56;6.03;;;4.20;;
29570;SDS011;16814;52.118;11.436;2023-04-01T14:51:29;4.70;;;3.90;;
29570;SDS011;16814;52.118;11.436;2023-04-01T14:54:04;4.88;;;3.38;;
29570;SDS011;16814;52.118;11.436;2023-04-01T14:56:34;3.85;;;3.20;;
29570;SDS011;16814;52.118;11.436;2023-04-01T15:01:49;5.28;;;4.78;;
29570;SDS011;16814;52.118;11.436;2023-04-01T15:16:10;3.47;;;3.17;;
29570;SDS011;16814;52.118;11.436;2023-04-01T15:24:40;7.22;;;5.68;;
29570;SDS011;16814;52.118;11.436;2023-04-01T15:33:03;3.73;;;3.33;;
29570;SDS011;16814;52.118;11.436;2023-04-01T15:35:53;4.68;;;3.92;;
29570;SDS011;16814;52.118;11.436;2023-04-01T15:38:36;5.63;;;4.20;;
29570;SDS011;16814;52.118;11.436;2023-04-01T15:46:26;5.35;;;4.53;;
29570;SDS011;16814;52.118;11.436;2023-04-01T15:49:15;6.85;;;5.05;;
29570;SDS011;16814;52.118;11.436;2023-04-01T15:52:19;7.97;;;6.13;;
29570;SDS011;16814;52.118;11.436;2023-04-01T15:55:08;7.15;;;6.22;;
29570;SDS011;16814;52.118;11.436;2023-04-01T15:57:48;7.85;;;6.70;;
29570;SDS011;16814;52.118;11.436;2023-04-01T16:20:14;4.90;;;4.22;;
29570;SDS011;16814;52.118;11.436;2023-04-01T16:28:09;6.03;;;4.43;;
29570;SDS011;16814;52.118;11.436;2023-04-01T16:30:54;6.25;;;5.30;;
29570;SDS011;16814;52.118;11.436;2023-04-01T16:36:10;13.07;;;8.90;;
29570;SDS011;16814;52.118;11.436;2023-04-01T16:38:46;5.15;;;4.22;;
29570;SDS011;16814;52.118;11.436;2023-04-01T16:41:34;10.80;;;8.85;;
29570;SDS011;16814;52.118;11.436;2023-04-01T16:44:20;7.43;;;5.15;;
29570;SDS011;16814;52.118;11.436;2023-04-01T16:46:54;5.10;;;3.60;;
29570;SDS011;16814;52.118;11.436;2023-04-01T16:52:12;4.32;;;3.40;;
29570;SDS011;16814;52.118;11.436;2023-04-01T16:57:26;6.88;;;4.03;;
29570;SDS011;16814;52.118;11.436;2023-04-01T17:00:02;5.23;;;4.20;;
29570;SDS011;16814;52.118;11.436;2023-04-01T17:02:49;4.40;;;3.55;;
29570;SDS011;16814;52.118;11.436;2023-04-01T17:05:32;5.20;;;3.70;;
29570;SDS011;16814;52.118;11.436;2023-04-01T17:10:50;6.28;;;3.80;;
29570;SDS011;16814;52.118;11.436;2023-04-01T17:15:54;5.22;;;3.78;;
29570;SDS011;16814;52.118;11.436;2023-04-01T17:18:48;5.22;;;3.80;;
29570;SDS011;16814;52.118;11.436;2023-04-01T17:21:38;7.30;;;4.27;;
29570;SDS011;16814;52.118;11.436;2023-04-01T17:35:33;6.07;;;3.72;;
29570;SDS011;16814;52.118;11.436;2023-04-01T17:38:05;4.70;;;3.60;;
29570;SDS011;16814;52.118;11.436;2023-04-01T17:45:58;6.13;;;3.20;;
29570;SDS011;16814;52.118;11.436;2023-04-01T17:48:52;6.43;;;3.30;;
29570;SDS011;16814;52.118;11.436;2023-04-01T17:51:40;6.13;;;3.55;;
29570;SDS011;16814;52.118;11.436;2023-04-01T17:57:13;5.43;;;3.20;;
29570;SDS011;16814;52.118;11.436;2023-04-01T18:24:56;4.38;;;3.20;;
29570;SDS011;16814;52.118;11.436;2023-04-01T18:27:37;4.30;;;3.45;;
29570;SDS011;16814;52.118;11.436;2023-04-01T18:30:13;4.38;;;2.97;;
29570;SDS011;16814;52.118;11.436;2023-04-01T18:35:52;4.82;;;3.22;;
29570;SDS011;16814;52.118;11.436;2023-04-01T18:38:27;3.17;;;2.80;;
29570;SDS011;16814;52.118;11.436;2023-04-01T18:55:15;5.05;;;3.00;;
29570;SDS011;16814;52.118;11.436;2023-04-01T18:57:54;4.63;;;2.90;;
29570;SDS011;16814;52.118;11.436;2023-04-01T19:00:34;5.70;;;2.60;;
29570;SDS011;16814;52.118;11.436;2023-04-01T19:03:21;4.50;;;2.47;;
29570;SDS011;16814;52.118;11.436;2023-04-01T19:05:53;2.85;;;2.38;;
29570;SDS011;16814;52.118;11.436;2023-04-01T19:08:27;4.57;;;2.75;;
29570;SDS011;16814;52.118;11.436;2023-04-01T19:13:29;6.07;;;2.88;;
29570;SDS011;16814;52.118;11.436;2023-04-01T19:16:21;4.88;;;2.67;;
29570;SDS011;16814;52.118;11.436;2023-04-01T19:21:47;4.57;;;2.47;;
29570;SDS011;16814;52.118;11.436;2023-04-01T19:27:02;2.90;;;2.60;;
29570;SDS011;16814;52.118;11.436;2023-04-01T19:32:14;3.05;;;2.50;;
29570;SDS011;16814;52.118;11.436;2023-04-01T19:37:25;2.83;;;2.22;;
29570;SDS011;16814;52.118;11.436;2023-04-01T19:45:38;4.85;;;2.75;;
29570;SDS011;16814;52.118;11.436;2023-04-01T19:51:11;4.22;;;2.88;;
29570;SDS011;16814;52.118;11.436;2023-04-01T19:53:59;4.33;;;2.87;;
29570;SDS011;16814;52.118;11.436;2023-04-01T19:56:38;5.05;;;3.25;;
29570;SDS011;16814;52.118;11.436;2023-04-01T19:59:31;6.18;;;3.40;;
29570;SDS011;16814;52.118;11.436;2023-04-01T20:04:34;4.03;;;3.15;;
29570;SDS011;16814;52.118;11.436;2023-04-01T20:17:47;5.82;;;3.65;;
29570;SDS011;16814;52.118;11.436;2023-04-01T20:25:17;7.20;;;4.40;;
29570;SDS011;16814;52.118;11.436;2023-04-01T20:27:55;7.75;;;4.78;;
29570;SDS011;16814;52.118;11.436;2023-04-01T20:30:32;9.43;;;4.60;;
29570;SDS011;16814;52.118;11.436;2023-04-01T20:35:35;10.27;;;4.63;;
29570;SDS011;16814;52.118;11.436;2023-04-01T20:40:40;7.50;;;4.70;;
29570;SDS011;16814;52.118;11.436;2023-04-01T20:43:27;8.57;;;4.47;;
29570;SDS011;16814;52.118;11.436;2023-04-01T20:46:10;7.90;;;4.70;;
29570;SDS011;16814;52.118;11.436;2023-04-01T20:51:06;7.80;;;4.70;;
29570;SDS011;16814;52.118;11.436;2023-04-01T20:53:50;8.30;;;4.63;;
29570;SDS011;16814;52.118;11.436;2023-04-01T21:02:01;11.07;;;5.07;;
29570;SDS011;16814;52.118;11.436;2023-04-01T21:05:04;10.33;;;5.27;;
29570;SDS011;16814;52.118;11.436;2023-04-01T21:16:08;9.88;;;5.47;;
29570;SDS011;16814;52.118;11.436;2023-04-01T21:22:06;11.68;;;5.93;;
29570;SDS011;16814;52.118;11.436;2023-04-01T21:30:31;12.88;;;7.13;;
29570;SDS011;16814;52.118;11.436;2023-04-01T21:44:55;14.70;;;6.55;;
29570;SDS011;16814;52.118;11.436;2023-04-01T21:53:25;11.70;;;6.95;;
29570;SDS011;16814;52.118;11.436;2023-04-01T22:04:31;16.33;;;7.30;;
29570;SDS011;16814;52.118;11.436;2023-04-01T22:07:12;12.57;;;7.40;;
29570;SDS011;16814;52.118;11.436;2023-04-01T22:12:35;14.13;;;6.80;;
29570;SDS011;16814;52.118;11.436;2023-04-01T22:20:56;15.15;;;7.90;;
29570;SDS011;16814;52.118;11.436;2023-04-01T22:23:31;17.85;;;8.07;;
29570;SDS011;16814;52.118;11.436;2023-04-01T22:28:57;17.58;;;7.13;;
29570;SDS011;16814;52.118;11.436;2023-04-01T22:31:47;14.48;;;7.45;;
29570;SDS011;16814;52.118;11.436;2023-04-01T22:37:18;14.95;;;7.65;;
29570;SDS011;16814;52.118;11.436;2023-04-01T22:42:51;15.73;;;7.55;;
29570;SDS011;16814;52.118;11.436;2023-04-01T22:45:38;15.15;;;7.85;;
29570;SDS011;16814;52.118;11.436;2023-04-01T22:48:35;15.73;;;8.00;;
29570;SDS011;16814;52.118;11.436;2023-04-01T22:54:23;13.35;;;7.03;;
29570;SDS011;16814;52.118;11.436;2023-04-01T22:57:00;15.65;;;7.35;;
29570;SDS011;16814;52.118;11.436;2023-04-01T22:59:58;14.60;;;7.15;;
29570;SDS011;16814;52.118;11.436;2023-04-01T23:02:34;14.82;;;7.60;;
29570;SDS011;16814;52.118;11.436;2023-04-01T23:05:05;18.00;;;7.85;;
29570;SDS011;16814;52.118;11.436;2023-04-01T23:10:27;13.50;;;7.70;;
29570;SDS011;16814;52.118;11.436;2023-04-01T23:12:59;18.77;;;7.80;;
29570;SDS011;16814;52.118;11.436;2023-04-01T23:15:28;17.83;;;8.32;;
29570;SDS011;16814;52.118;11.436;2023-04-01T23:23:41;15.30;;;7.90;;
29570;SDS011;16814;52.118;11.436;2023-04-01T23:26:11;17.20;;;7.53;;
29570;SDS011;16814;52.118;11.436;2023-04-01T23:28:49;17.10;;;8.52;;
29570;SDS011;16814;52.118;11.436;2023-04-01T23:31:25;17.00;;;8.20;;
29570;SDS011;16814;52.118;11.436;2023-04-01T23:36:50;20.58;;;8.00;;
29570;SDS011;16814;52.118;11.436;2023-04-01T23:42:07;17.40;;;7.88;;
29570;SDS011;16814;52.118;11.436;2023-04-01T23:44:45;15.27;;;7.80;;
29570;SDS011;16814;52.118;11.436;2023-04-01T23:47:13;15.75;;;8.15;;
29570;SDS011;16814;52.118;11.436;2023-04-01T23:49:54;12.98;;;7.88;;
29570;SDS011;16814;52.118;11.436;2023-04-01T23:52:27;18.40;;;8.13;;
29570;SDS011;16814;52.118;11.436;2023-04-01T23:54:56;18.13;;;8.37;;
29570;SDS011;16814;52.118;11.436;2023-04-01T23:57:30;17.67;;;8.63;;
